General R Fierro Villalobos International Airport
MMCU : now visible

Airfield :











YOU CAN JOIN US ON...

 
LOGIN :

Register | Disclaimer

   EN    FR    IT 

 









Legend :    VFR   Marginal VFR   IFR   Intensive IFR   Very Intensive IFR
Visi :
Ceiling :
>= 8 km
>= 3000ft
5 to 8 km
1000 to 3000 ft
1500m to 5 km
500 to 1000 ft
800 to 1500m
200 to 500 ft
< 800m
< 200 ft
Symbols :   Thunderstorms  Fog  Heavy snow  Heavy precipitations  Wind > 20 kt






- Airport Elevation : 4462 ft
- IATA code : CUU


MMCU - General R Fierro Villalobos International

CURRENT METAR :
  • 131440Z 00000KT 10SM FEW080 BKN200 25/14 A3029 RMK SLP153 52013 918 8/078

EXPIRED METARs :
  • 131346Z 00000KT 10SM SCT080 BKN200 23/15 A3029 RMK 8/078
  • 131140Z 17005KT 10SM SCT080 20/13 A3025 RMK SLP111 5//// 920 8/070 RTS

TAF TAF MMCU
Valid from the 13 at 06:00 until the 14 at 06:00 UTC


130548Z 1306/1406 10010KT P6SM SCT030CB BKN070
FM130900 00000KT P6SM SCT030
FM131100 28005KT P6SM SCT040
TEMPO 1317/1321 12010G20KT BKN030
FM132100 18010KT P6SM BKN030CB
FM140000 27010KT P6SM SKC
MMFR FIR / North America



MET'MAP, your aeronautical weather chart ! - Copyright ORBIFLY December 2007 - Disclaimer

ORBIFLY MET'MAP TEAM :

Programming & Development : Alexandra Zaïnal
Original concept : Baudouin d'Aumeries
Technical & hardware support : Manuel Goepfert
Assistance : Marc-Olivier Méhu




SOURCES & CREDITS :

   NOAA       Earth
Advisory